createdAt,value
2023-04-17T00:02:07.706Z,16.50
2023-04-17T00:04:35.581Z,16.75
2023-04-17T00:07:02.098Z,15.65
2023-04-17T00:09:28.525Z,17.80
2023-04-17T00:11:55.022Z,17.90
2023-04-17T00:14:21.652Z,16.25
2023-04-17T00:16:48.147Z,17.63
2023-04-17T00:19:14.722Z,15.90
2023-04-17T00:21:42.410Z,18.40
2023-04-17T00:24:08.830Z,19.50
2023-04-17T00:26:35.243Z,17.05
2023-04-17T00:29:01.717Z,18.70
2023-04-17T00:31:28.132Z,16.80
2023-04-17T00:33:54.522Z,17.23
2023-04-17T00:36:20.935Z,18.85
2023-04-17T00:38:48.796Z,17.70
2023-04-17T00:41:15.264Z,16.70
2023-04-17T00:43:41.634Z,17.45
2023-04-17T00:46:08.440Z,16.40
2023-04-17T00:48:36.756Z,20.75
2023-04-17T00:51:03.596Z,21.95
2023-04-17T00:53:31.304Z,16.83
2023-04-17T00:56:00.510Z,17.85
2023-04-17T00:58:27.792Z,15.27
2023-04-17T01:00:54.477Z,17.40
2023-04-17T01:03:21.307Z,17.45
2023-04-17T01:05:50.416Z,16.50
2023-04-17T01:08:17.440Z,19.27
2023-04-17T01:10:43.825Z,17.55
2023-04-17T01:13:11.637Z,18.55
2023-04-17T01:15:38.027Z,20.88
2023-04-17T01:18:05.555Z,17.05
2023-04-17T01:20:32.400Z,16.23
2023-04-17T01:22:59.228Z,19.05
2023-04-17T01:25:28.145Z,16.75
2023-04-17T01:27:54.930Z,16.50
2023-04-17T01:30:21.716Z,16.40
2023-04-17T01:32:48.188Z,17.77
2023-04-17T01:35:14.646Z,21.67
2023-04-17T01:37:41.071Z,16.27
2023-04-17T01:40:08.637Z,16.95
2023-04-17T01:42:36.456Z,15.73
2023-04-17T01:45:05.628Z,21.33
2023-04-17T01:47:32.076Z,17.05
2023-04-17T01:49:58.492Z,23.42
2023-04-17T01:52:25.080Z,18.48
2023-04-17T01:54:51.534Z,17.10
2023-04-17T01:57:17.932Z,17.02
2023-04-17T01:59:45.683Z,19.02
2023-04-17T02:02:12.237Z,17.35
2023-04-17T02:04:38.877Z,18.25
2023-04-17T02:07:05.306Z,20.42
2023-04-17T02:09:31.690Z,18.02
2023-04-17T02:11:58.084Z,18.63
2023-04-17T02:14:25.088Z,15.88
2023-04-17T02:16:52.778Z,17.45
2023-04-17T02:19:19.183Z,17.20
2023-04-17T02:21:45.601Z,17.02
2023-04-17T02:24:12.064Z,16.15
2023-04-17T02:26:38.637Z,18.90
2023-04-17T02:29:05.036Z,16.77
2023-04-17T02:31:31.573Z,17.80
2023-04-17T02:33:59.387Z,18.05
2023-04-17T02:36:25.887Z,18.92
2023-04-17T02:38:52.302Z,18.98
2023-04-17T02:41:18.709Z,19.85
2023-04-17T02:43:45.257Z,18.35
2023-04-17T02:46:11.663Z,18.02
2023-04-17T02:48:38.039Z,20.65
2023-04-17T02:51:05.928Z,20.38
2023-04-17T02:53:32.293Z,16.75
2023-04-17T02:55:58.636Z,20.17
2023-04-17T02:58:25.218Z,19.73
2023-04-17T03:00:51.677Z,18.50
2023-04-17T03:03:18.186Z,18.48
2023-04-17T03:05:44.724Z,16.75
2023-04-17T03:08:12.437Z,18.02
2023-04-17T03:10:38.834Z,16.65
2023-04-17T03:13:05.211Z,19.02
2023-04-17T03:15:31.554Z,20.02
2023-04-17T03:17:57.968Z,16.63
2023-04-17T03:20:24.459Z,20.45
2023-04-17T03:22:50.818Z,19.80
2023-04-17T03:25:18.612Z,17.70
2023-04-17T03:27:44.998Z,16.75
2023-04-17T03:30:12.246Z,18.83
2023-04-17T03:32:38.718Z,17.95
2023-04-17T03:35:05.505Z,17.23
2023-04-17T03:37:31.891Z,23.33
2023-04-17T03:39:58.272Z,20.77
2023-04-17T03:42:26.543Z,19.40
2023-04-17T03:44:52.986Z,18.35
2023-04-17T03:47:19.349Z,19.70
2023-04-17T03:49:45.906Z,20.90
2023-04-17T03:52:12.615Z,19.10
2023-04-17T03:54:39.034Z,15.88
2023-04-17T03:57:05.481Z,17.42
2023-04-17T03:59:33.262Z,20.73
2023-04-17T04:01:59.860Z,20.05
2023-04-17T04:04:26.510Z,18.90
2023-04-17T04:06:53.151Z,19.15
2023-04-17T04:09:19.718Z,19.55
2023-04-17T04:11:46.107Z,16.95
2023-04-17T04:14:12.467Z,18.48
2023-04-17T04:16:40.222Z,20.35
2023-04-17T04:19:06.592Z,17.77
2023-04-17T04:21:32.978Z,16.80
2023-04-17T04:23:59.333Z,16.73
2023-04-17T04:26:25.911Z,20.58
2023-04-17T04:28:52.297Z,20.27
2023-04-17T04:31:19.410Z,19.35
2023-04-17T04:33:47.201Z,21.77
2023-04-17T04:36:13.603Z,19.42
2023-04-17T04:38:39.982Z,19.00
2023-04-17T04:41:06.688Z,17.33
2023-04-17T04:43:33.747Z,23.17
2023-04-17T04:46:00.132Z,22.83
2023-04-17T04:48:26.704Z,18.23
2023-04-17T04:50:54.592Z,19.88
2023-04-17T04:53:21.068Z,18.23
2023-04-17T04:55:47.446Z,21.60
2023-04-17T04:58:13.904Z,17.90
2023-04-17T05:00:40.383Z,19.90
2023-04-17T05:03:06.973Z,19.50
2023-04-17T05:05:33.750Z,19.60
2023-04-17T05:08:01.787Z,18.40
2023-04-17T05:10:28.203Z,19.30
2023-04-17T05:12:54.584Z,18.02
2023-04-17T05:15:21.240Z,18.58
2023-04-17T05:17:47.695Z,20.33
2023-04-17T05:20:14.060Z,19.75
2023-04-17T05:22:40.744Z,18.35
2023-04-17T05:25:09.057Z,18.52
2023-04-17T05:27:35.925Z,20.30
2023-04-17T05:30:02.305Z,16.88
2023-04-17T05:32:28.798Z,16.33
2023-04-17T05:34:55.250Z,18.15
2023-04-17T05:37:21.634Z,17.75
2023-04-17T05:39:48.001Z,20.00
2023-04-17T05:42:15.651Z,18.38
2023-04-17T05:44:42.011Z,21.33
2023-04-17T05:47:08.446Z,19.92
2023-04-17T05:49:34.798Z,16.80
2023-04-17T05:52:01.169Z,19.38
2023-04-17T05:54:27.580Z,20.13
2023-04-17T05:56:53.968Z,17.55
2023-04-17T05:59:21.665Z,19.27
2023-04-17T06:01:48.170Z,19.63
2023-04-17T06:04:14.920Z,19.60
2023-04-17T06:06:41.600Z,18.83
2023-04-17T06:09:07.980Z,16.48
2023-04-17T06:11:34.359Z,21.45
2023-04-17T06:14:00.839Z,19.50
2023-04-17T06:16:28.643Z,17.50
2023-04-17T06:18:55.060Z,18.95
2023-04-17T06:21:21.496Z,19.77
2023-04-17T06:23:48.133Z,16.38
2023-04-17T06:26:14.493Z,19.98
2023-04-17T06:28:40.848Z,17.58
2023-04-17T06:31:07.329Z,17.20
2023-04-17T06:33:35.043Z,16.63
2023-04-17T06:36:01.419Z,14.45
2023-04-17T06:38:28.006Z,16.92
2023-04-17T06:40:54.390Z,17.63
2023-04-17T06:43:20.805Z,17.33
2023-04-17T06:45:47.838Z,19.25
2023-04-17T06:48:14.246Z,15.55
2023-04-17T06:50:42.042Z,17.17
2023-04-17T06:53:08.407Z,15.00
2023-04-17T06:55:34.820Z,15.40
2023-04-17T06:58:01.246Z,17.42
2023-04-17T07:00:27.913Z,20.13
2023-04-17T07:02:54.423Z,18.70
2023-04-17T07:05:20.892Z,19.95
2023-04-17T07:07:48.581Z,18.27
2023-04-17T07:10:14.930Z,20.17
2023-04-17T07:12:41.342Z,15.63
2023-04-17T07:15:09.278Z,16.83
2023-04-17T07:17:35.726Z,18.95
2023-04-17T07:20:02.231Z,17.85
2023-04-17T07:22:28.705Z,13.40
2023-04-17T07:24:56.442Z,16.95
2023-04-17T07:27:22.832Z,17.50
2023-04-17T07:29:49.252Z,18.25
2023-04-17T07:32:15.860Z,16.73
2023-04-17T07:34:42.230Z,14.60
2023-04-17T07:37:08.778Z,18.58
2023-04-17T07:39:35.164Z,17.55
2023-04-17T07:42:02.861Z,14.20
2023-04-17T07:44:29.423Z,15.43
2023-04-17T07:46:55.919Z,13.80
2023-04-17T07:49:22.344Z,15.27
2023-04-17T07:51:48.736Z,13.98
2023-04-17T07:54:15.120Z,17.08
2023-04-17T07:56:41.464Z,14.25
2023-04-17T07:59:09.164Z,14.43
2023-04-17T08:01:35.555Z,14.57
2023-04-17T08:04:02.361Z,14.30
2023-04-17T08:06:29.138Z,15.57
2023-04-17T08:08:55.563Z,17.60
2023-04-17T08:11:22.009Z,13.15
2023-04-17T08:13:48.410Z,13.43
2023-04-17T08:16:16.226Z,12.75
2023-04-17T08:18:42.647Z,15.70
2023-04-17T08:21:09.171Z,14.20
2023-04-17T08:23:35.607Z,13.18
2023-04-17T08:26:01.958Z,13.05
2023-04-17T08:28:28.341Z,16.30
2023-04-17T08:30:54.755Z,16.30
2023-04-17T08:33:22.638Z,12.63
2023-04-17T08:35:49.065Z,12.02
2023-04-17T08:38:15.458Z,13.40
2023-04-17T08:40:42.440Z,12.95
2023-04-17T08:43:14.055Z,14.07
2023-04-17T08:45:46.642Z,15.00
2023-04-17T08:48:13.474Z,14.27
2023-04-17T08:50:45.533Z,13.77
2023-04-17T08:53:11.902Z,12.63
2023-04-17T08:55:38.273Z,15.55
2023-04-17T08:58:05.162Z,16.17
2023-04-17T09:00:32.951Z,14.65
2023-04-17T09:03:01.762Z,13.65
2023-04-17T09:05:29.735Z,15.02
2023-04-17T09:08:09.316Z,13.55
2023-04-17T09:10:36.776Z,12.68
2023-04-17T09:13:03.292Z,13.82
2023-04-17T09:15:29.803Z,15.60
2023-04-17T09:17:56.190Z,15.35
2023-04-17T09:20:22.814Z,12.80
2023-04-17T09:22:58.895Z,15.73
2023-04-17T09:25:26.598Z,16.02
2023-04-17T09:27:52.987Z,11.30
2023-04-17T09:30:19.741Z,12.13
2023-04-17T09:32:46.175Z,12.55
2023-04-17T09:35:23.714Z,16.27
2023-04-17T09:37:51.754Z,11.48
2023-04-17T09:40:21.705Z,10.48
2023-04-17T09:42:57.938Z,11.07
2023-04-17T09:45:26.262Z,11.68
2023-04-17T09:47:52.685Z,11.65
2023-04-17T09:50:19.481Z,9.50
2023-04-17T09:52:46.424Z,10.38
2023-04-17T09:55:14.118Z,11.88
2023-04-17T09:57:42.795Z,11.70
2023-04-17T10:00:13.906Z,11.15
2023-04-17T10:02:44.067Z,10.10
2023-04-17T10:05:10.847Z,11.00
2023-04-17T10:07:37.851Z,11.68
2023-04-17T10:10:05.057Z,9.75
2023-04-17T10:12:32.875Z,15.18
2023-04-17T10:15:00.422Z,11.25
2023-04-17T10:17:30.160Z,12.95
2023-04-17T10:19:56.913Z,10.73
2023-04-17T10:22:30.707Z,10.95
2023-04-17T10:25:23.360Z,10.63
2023-04-17T10:27:52.364Z,8.75
2023-04-17T10:33:23.000Z,13.00
2023-04-17T10:35:49.515Z,10.98
2023-04-17T10:38:16.044Z,9.45
2023-04-17T10:40:43.845Z,12.55
2023-04-17T10:43:12.403Z,8.85
2023-04-17T10:45:53.599Z,10.60
2023-04-17T10:48:27.400Z,11.75
2023-04-17T10:50:54.066Z,11.02
2023-04-17T10:53:42.319Z,10.73
2023-04-17T10:56:10.132Z,15.63
2023-04-17T10:58:38.474Z,9.90
2023-04-17T11:01:09.976Z,10.07
2023-04-17T11:03:38.591Z,12.35
2023-04-17T11:06:06.161Z,9.40
2023-04-17T11:08:32.662Z,14.25
2023-04-17T11:10:59.072Z,9.10
2023-04-17T11:13:25.506Z,12.48
2023-04-17T11:15:52.150Z,10.07
2023-04-17T11:18:20.647Z,11.20
2023-04-17T11:20:48.502Z,10.68
2023-04-17T11:23:16.152Z,12.40
2023-04-17T11:25:43.821Z,9.18
2023-04-17T11:28:11.490Z,9.15
2023-04-17T11:30:39.425Z,8.93
2023-04-17T11:33:07.766Z,10.43
2023-04-17T11:35:36.790Z,10.20
2023-04-17T11:38:12.805Z,10.77
2023-04-17T11:40:47.361Z,10.35
2023-04-17T11:43:13.818Z,10.73
2023-04-17T11:45:43.831Z,9.07
2023-04-17T11:48:11.563Z,8.80
2023-04-17T11:50:39.457Z,10.07
2023-04-17T11:53:06.962Z,7.57
2023-04-17T11:55:34.690Z,8.38
2023-04-17T11:58:03.092Z,11.05
2023-04-17T12:00:30.053Z,10.30
2023-04-17T12:02:57.502Z,8.98
2023-04-17T12:05:25.372Z,9.10
2023-04-17T12:08:05.852Z,10.55
2023-04-17T12:10:41.432Z,9.63
2023-04-17T12:13:08.006Z,10.05
2023-04-17T12:15:34.500Z,8.20
2023-04-17T12:18:01.599Z,7.95
2023-04-17T12:20:28.172Z,8.90
2023-04-17T12:22:54.738Z,8.43
2023-04-17T12:25:21.116Z,12.18
2023-04-17T12:27:49.449Z,10.10
2023-04-17T12:30:15.955Z,9.32
2023-04-17T12:32:42.700Z,9.65
2023-04-17T12:35:09.653Z,10.75
2023-04-17T12:37:36.068Z,9.80
2023-04-17T12:40:02.556Z,8.35
2023-04-17T12:42:31.470Z,9.50
2023-04-17T12:45:01.543Z,10.38
2023-04-17T12:47:28.456Z,10.35
2023-04-17T12:49:54.914Z,11.88
2023-04-17T12:52:21.340Z,10.65
2023-04-17T12:54:47.937Z,10.43
2023-04-17T12:57:14.426Z,9.68
2023-04-17T12:59:40.860Z,9.68
2023-04-17T13:02:08.748Z,10.25
2023-04-17T13:04:35.258Z,8.98
2023-04-17T13:07:01.851Z,10.48
2023-04-17T13:09:28.292Z,8.93
2023-04-17T13:11:54.698Z,13.13
2023-04-17T13:14:21.136Z,9.90
2023-04-17T13:16:47.599Z,11.98
2023-04-17T13:19:15.519Z,8.45
2023-04-17T13:21:42.041Z,9.45
2023-04-17T13:24:08.893Z,9.45
2023-04-17T13:26:36.370Z,8.40
2023-04-17T13:29:03.403Z,8.93
2023-04-17T13:31:29.842Z,8.80
2023-04-17T13:33:56.343Z,7.30
2023-04-17T13:36:24.122Z,9.10
2023-04-17T13:38:50.520Z,9.52
2023-04-17T13:41:16.916Z,8.85
2023-04-17T13:43:43.300Z,11.23
2023-04-17T13:46:10.043Z,9.60
2023-04-17T13:48:36.538Z,10.73
2023-04-17T13:51:03.041Z,10.30
2023-04-17T13:53:30.772Z,10.18
2023-04-17T13:55:57.437Z,16.75
2023-04-17T13:58:23.925Z,9.85
2023-04-17T14:00:50.576Z,9.73
2023-04-17T14:03:17.175Z,9.93
2023-04-17T14:05:43.773Z,9.63
2023-04-17T14:08:10.684Z,8.35
2023-04-17T14:10:38.396Z,7.40
2023-04-17T14:13:04.818Z,7.03
2023-04-17T14:15:31.239Z,8.40
2023-04-17T14:17:57.728Z,8.70
2023-04-17T14:20:24.584Z,9.02
2023-04-17T14:22:51.251Z,9.55
2023-04-17T14:25:17.688Z,9.98
2023-04-17T14:27:45.653Z,7.72
2023-04-17T14:30:12.859Z,10.82
2023-04-17T14:32:39.334Z,8.25
2023-04-17T14:35:06.609Z,7.28
2023-04-17T14:37:34.037Z,13.70
2023-04-17T14:40:00.603Z,8.25
2023-04-17T14:42:27.029Z,8.02
2023-04-17T14:44:54.881Z,10.85
2023-04-17T14:47:21.404Z,9.75
2023-04-17T14:49:47.850Z,9.70
2023-04-17T14:52:14.307Z,10.00
2023-04-17T14:54:40.743Z,10.68
2023-04-17T14:57:07.448Z,7.80
2023-04-17T14:59:34.360Z,12.15
2023-04-17T15:02:02.271Z,10.90
2023-04-17T15:04:28.814Z,8.45
2023-04-17T15:06:55.396Z,12.20
2023-04-17T15:09:21.787Z,7.78
2023-04-17T15:11:48.218Z,8.80
2023-04-17T15:14:14.646Z,8.25
2023-04-17T15:16:41.113Z,11.75
2023-04-17T15:19:09.029Z,9.15
2023-04-17T15:21:35.441Z,9.90
2023-04-17T15:24:01.827Z,8.30
2023-04-17T15:26:28.382Z,8.95
2023-04-17T15:28:54.864Z,7.68
2023-04-17T15:31:21.489Z,10.32
2023-04-17T15:33:47.886Z,11.05
2023-04-17T15:36:15.995Z,10.02
2023-04-17T15:38:42.392Z,9.95
2023-04-17T15:41:10.575Z,9.18
2023-04-17T15:43:37.752Z,8.02
2023-04-17T15:46:04.267Z,11.27
2023-04-17T15:48:30.723Z,10.18
2023-04-17T15:50:57.147Z,8.23
2023-04-17T15:53:24.848Z,11.05
2023-04-17T15:55:52.370Z,11.35
2023-04-17T15:58:18.764Z,9.48
2023-04-17T16:00:45.459Z,8.93
2023-04-17T16:03:12.076Z,12.40
2023-04-17T16:05:39.021Z,9.93
2023-04-17T16:08:05.629Z,10.45
2023-04-17T16:10:33.948Z,9.68
2023-04-17T16:13:00.649Z,11.38
2023-04-17T16:15:27.617Z,10.40
2023-04-17T16:17:54.047Z,11.32
2023-04-17T16:20:20.686Z,9.15
2023-04-17T16:22:47.093Z,9.90
2023-04-17T16:25:13.586Z,11.40
2023-04-17T16:27:41.334Z,8.80
2023-04-17T16:30:10.788Z,13.75
2023-04-17T16:32:37.515Z,9.80
2023-04-17T16:35:04.463Z,9.70
2023-04-17T16:37:30.877Z,9.07
2023-04-17T16:39:57.251Z,12.30
2023-04-17T16:42:23.728Z,9.10
2023-04-17T16:44:51.504Z,8.23
2023-04-17T16:47:18.015Z,8.68
2023-04-17T16:49:44.455Z,9.80
2023-04-17T16:52:10.866Z,9.45
2023-04-17T16:54:37.233Z,10.13
2023-04-17T16:57:04.041Z,12.90
2023-04-17T16:59:30.409Z,9.43
2023-04-17T17:02:00.051Z,12.10
2023-04-17T17:04:27.884Z,12.68
2023-04-17T17:06:54.266Z,12.18
2023-04-17T17:09:20.624Z,11.20
2023-04-17T17:11:47.418Z,10.60
2023-04-17T17:14:13.826Z,11.73
2023-04-17T17:16:40.331Z,11.13
2023-04-17T17:19:08.258Z,11.13
2023-04-17T17:21:34.629Z,12.85
2023-04-17T17:24:01.030Z,9.63
2023-04-17T17:26:27.583Z,10.35
2023-04-17T17:28:53.949Z,10.27
2023-04-17T17:31:21.221Z,10.18
2023-04-17T17:33:47.659Z,12.85
2023-04-17T17:36:15.350Z,12.38
2023-04-17T17:38:41.724Z,14.93
2023-04-17T17:41:08.220Z,13.68
2023-04-17T17:43:34.785Z,9.13
2023-04-17T17:46:01.207Z,10.00
2023-04-17T17:48:27.619Z,10.57
2023-04-17T17:50:54.844Z,12.25
2023-04-17T17:53:26.362Z,13.23
2023-04-17T17:55:54.314Z,9.63
2023-04-17T17:58:20.910Z,7.95
2023-04-17T18:00:47.430Z,7.72
2023-04-17T18:03:13.964Z,10.73
2023-04-17T18:05:40.707Z,7.72
2023-04-17T18:08:07.160Z,10.80
2023-04-17T18:10:35.469Z,9.70
2023-04-17T18:13:02.007Z,9.68
2023-04-17T18:15:28.447Z,8.60
2023-04-17T18:17:54.924Z,10.38
2023-04-17T18:20:21.731Z,9.57
2023-04-17T18:22:48.093Z,9.45
2023-04-17T18:25:14.841Z,10.48
2023-04-17T18:27:42.520Z,10.27
2023-04-17T18:30:09.693Z,11.05
2023-04-17T18:32:36.311Z,8.07
2023-04-17T18:35:02.730Z,10.10
2023-04-17T18:37:29.182Z,9.85
2023-04-17T18:39:55.662Z,10.05
2023-04-17T18:42:22.255Z,7.43
2023-04-17T18:44:49.991Z,9.55
2023-04-17T18:47:16.782Z,10.80
2023-04-17T18:49:43.227Z,7.70
2023-04-17T18:52:09.625Z,6.85
2023-04-17T18:54:36.379Z,8.07
2023-04-17T18:57:02.746Z,6.47
2023-04-17T18:59:29.124Z,7.43
2023-04-17T19:01:56.956Z,6.40
2023-04-17T19:04:23.421Z,5.90
2023-04-17T19:06:49.844Z,6.70
2023-04-17T19:09:16.277Z,8.55
2023-04-17T19:11:42.678Z,6.07
2023-04-17T19:14:09.120Z,5.97
2023-04-17T19:16:35.775Z,8.50
2023-04-17T19:19:03.526Z,6.18
2023-04-17T19:21:29.971Z,6.43
2023-04-17T19:23:56.410Z,8.60
2023-04-17T19:26:22.849Z,6.38
2023-04-17T19:28:49.692Z,5.65
2023-04-17T19:31:16.132Z,5.40
2023-04-17T19:33:42.562Z,5.60
2023-04-17T19:36:10.312Z,5.72
2023-04-17T19:38:36.791Z,5.20
2023-04-17T19:41:13.196Z,5.38
2023-04-17T19:43:39.789Z,6.03
2023-04-17T19:46:06.251Z,5.75
2023-04-17T19:48:32.631Z,5.43
2023-04-17T19:50:59.068Z,6.90
2023-04-17T19:53:28.745Z,6.38
2023-04-17T19:55:55.147Z,6.38
2023-04-17T19:58:21.657Z,5.88
2023-04-17T20:00:48.101Z,5.32
2023-04-17T20:03:14.602Z,8.40
2023-04-17T20:05:41.125Z,6.45
2023-04-17T20:08:07.548Z,6.63
2023-04-17T20:10:35.401Z,6.88
2023-04-17T20:13:01.926Z,6.10
2023-04-17T20:15:28.622Z,6.50
2023-04-17T20:17:55.050Z,6.57
2023-04-17T20:20:21.717Z,5.63
2023-04-17T20:22:48.469Z,5.10
2023-04-17T20:25:15.058Z,5.22
2023-04-17T20:27:42.869Z,5.95
2023-04-17T20:30:10.375Z,5.25
2023-04-17T20:32:36.827Z,5.88
2023-04-17T20:35:03.769Z,4.57
2023-04-17T20:37:30.388Z,5.93
2023-04-17T20:39:56.792Z,6.00
2023-04-17T20:42:23.360Z,6.25
2023-04-17T20:44:51.059Z,5.60
2023-04-17T20:47:17.502Z,5.53
2023-04-17T20:49:43.905Z,6.88
2023-04-17T20:52:10.260Z,5.15
2023-04-17T20:54:36.620Z,15.07
2023-04-17T20:57:03.241Z,5.88
2023-04-17T20:59:29.602Z,6.60
2023-04-17T21:01:57.416Z,4.85
2023-04-17T21:04:23.899Z,6.43
2023-04-17T21:06:50.311Z,4.47
2023-04-17T21:09:16.651Z,6.45
2023-04-17T21:11:43.158Z,5.25
2023-04-17T21:14:09.573Z,5.25
2023-04-17T21:16:35.997Z,4.28
2023-04-17T21:19:03.779Z,4.35
2023-04-17T21:21:30.181Z,6.20
2023-04-17T21:23:56.588Z,5.75
2023-04-17T21:26:23.124Z,5.82
2023-04-17T21:28:49.504Z,5.05
2023-04-17T21:31:15.971Z,5.93
2023-04-17T21:33:42.474Z,5.47
2023-04-17T21:36:10.214Z,5.43
2023-04-17T21:38:36.578Z,4.43
2023-04-17T21:41:03.157Z,5.18
2023-04-17T21:43:30.285Z,4.75
2023-04-17T21:45:56.836Z,4.93
2023-04-17T21:48:23.571Z,7.68
2023-04-17T21:50:50.027Z,4.68
2023-04-17T21:53:17.732Z,6.40
2023-04-17T21:55:44.121Z,5.07
2023-04-17T21:58:10.519Z,5.85
2023-04-17T22:00:36.934Z,5.85
2023-04-17T22:03:03.497Z,6.22
2023-04-17T22:05:29.897Z,5.32
2023-04-17T22:07:56.281Z,5.10
2023-04-17T22:10:24.382Z,6.05
2023-04-17T22:12:50.990Z,4.95
2023-04-17T22:15:17.591Z,6.00
2023-04-17T22:17:44.100Z,6.65
2023-04-17T22:20:11.596Z,6.22
2023-04-17T22:22:37.948Z,7.63
2023-04-17T22:25:05.260Z,6.15
2023-04-17T22:27:32.992Z,6.32
2023-04-17T22:29:59.371Z,6.90
2023-04-17T22:32:25.974Z,8.10
2023-04-17T22:34:52.400Z,7.00
2023-04-17T22:37:18.779Z,8.25
2023-04-17T22:39:45.170Z,6.88
2023-04-17T22:42:11.561Z,8.07
2023-04-17T22:44:39.253Z,7.32
2023-04-17T22:47:05.651Z,8.25
2023-04-17T22:49:32.028Z,7.10
2023-04-17T22:51:58.406Z,7.28
2023-04-17T22:54:24.978Z,9.90
2023-04-17T22:56:51.519Z,9.45
2023-04-17T22:59:17.890Z,10.15
2023-04-17T23:01:45.648Z,8.73
2023-04-17T23:04:12.301Z,7.75
2023-04-17T23:06:38.887Z,8.57
2023-04-17T23:09:05.304Z,8.68
2023-04-17T23:11:31.924Z,7.72
2023-04-17T23:13:58.340Z,8.80
2023-04-17T23:16:24.820Z,7.07
2023-04-17T23:18:52.586Z,8.35
2023-04-17T23:21:19.002Z,8.13
2023-04-17T23:23:48.172Z,8.57
2023-04-17T23:26:15.025Z,8.90
2023-04-17T23:28:41.403Z,8.95
2023-04-17T23:31:07.895Z,8.90
2023-04-17T23:33:34.310Z,8.65
2023-04-17T23:36:02.038Z,8.32
2023-04-17T23:38:28.609Z,8.35
2023-04-17T23:40:55.040Z,8.25
2023-04-17T23:43:21.412Z,8.85
2023-04-17T23:45:47.870Z,7.88
2023-04-17T23:48:14.252Z,7.15
2023-04-17T23:50:40.841Z,9.00
2023-04-17T23:53:08.563Z,7.30
2023-04-17T23:55:34.916Z,8.73
2023-04-17T23:58:01.274Z,9.77
